ENGM

Oslo Gardermoen Airport

Oslo, Norway
METAR ENGM 160950Z 11004KT 070V160 9999 -SN OVC007 M03/M03 Q1022 TEMPO BKN010
Observed Flight Rules
Dec-16 @ 09:50 UTC (38 minutes ago) Instrument Flight Rules
Wind Visibility Clouds Conditions
110° at 4 knots 10,000+ meters
  • Overcast at 700' AGL
  • Light Snow
Temperatures Readings
Current -3°C / 27°F
Dewpoint -3°C / 27°F
Humidity 100%
Altimeter 30.18" Hg
Pressure 1022 hPa
Elevation 204
METAR ENGM 160950Z 11004KT 070V160 9999 -SN OVC007 M03/M03 Q1022 TEMPO BKN010
Observed Flight Rules
Dec-16 @ 09:50 UTC
(38 minutes ago)
IFR
Wind Visibility
110° at 4 knots 10,000+ meters
Clouds
  • Overcast at 700' AGL
Conditions
  • Light Snow
Temperature Dewpoint
-3°C / 27°F -3°C / 27°F
Humidity Altimeter Pressure
100% 30.18" Hg 1022 hPa